sensor_id;sensor_type;location;lat;lon;timestamp;temperature;humidity
51855;DHT22;37895;53.240;6.572;2023-07-13T00:01:15;18.00;99.90
51855;DHT22;37895;53.240;6.572;2023-07-13T00:03:40;18.00;99.90
51855;DHT22;37895;53.240;6.572;2023-07-13T00:06:06;18.00;99.90
51855;DHT22;37895;53.240;6.572;2023-07-13T00:08:32;18.00;99.90
51855;DHT22;37895;53.240;6.572;2023-07-13T00:10:59;18.00;99.90
51855;DHT22;37895;53.240;6.572;2023-07-13T00:13:24;18.00;99.90
51855;DHT22;37895;53.240;6.572;2023-07-13T00:15:50;17.90;99.90
51855;DHT22;37895;53.240;6.572;2023-07-13T00:18:15;17.90;99.90
51855;DHT22;37895;53.240;6.572;2023-07-13T00:20:41;17.90;99.90
51855;DHT22;37895;53.240;6.572;2023-07-13T00:23:07;17.90;99.90
51855;DHT22;37895;53.240;6.572;2023-07-13T00:25:32;17.90;99.90
51855;DHT22;37895;53.240;6.572;2023-07-13T00:27:58;17.90;99.90
51855;DHT22;37895;53.240;6.572;2023-07-13T00:30:23;17.90;99.90
51855;DHT22;37895;53.240;6.572;2023-07-13T00:32:49;17.90;99.90
51855;DHT22;37895;53.240;6.572;2023-07-13T00:35:15;17.90;99.90
51855;DHT22;37895;53.240;6.572;2023-07-13T00:37:41;17.90;99.90
51855;DHT22;37895;53.240;6.572;2023-07-13T00:40:07;17.90;99.90
51855;DHT22;37895;53.240;6.572;2023-07-13T00:42:32;17.80;99.90
51855;DHT22;37895;53.240;6.572;2023-07-13T00:45:05;17.90;99.90
51855;DHT22;37895;53.240;6.572;2023-07-13T00:47:31;17.90;99.90
51855;DHT22;37895;53.240;6.572;2023-07-13T00:49:57;17.80;99.90
51855;DHT22;37895;53.240;6.572;2023-07-13T00:52:22;17.80;99.90
51855;DHT22;37895;53.240;6.572;2023-07-13T00:54:48;17.70;99.90
51855;DHT22;37895;53.240;6.572;2023-07-13T00:57:15;17.60;99.90
51855;DHT22;37895;53.240;6.572;2023-07-13T00:59:42;17.60;99.90
51855;DHT22;37895;53.240;6.572;2023-07-13T01:02:08;17.60;99.90
51855;DHT22;37895;53.240;6.572;2023-07-13T01:04:34;17.60;99.90
51855;DHT22;37895;53.240;6.572;2023-07-13T01:06:59;17.60;99.90
51855;DHT22;37895;53.240;6.572;2023-07-13T01:09:26;17.60;99.90
51855;DHT22;37895;53.240;6.572;2023-07-13T01:11:51;17.60;99.90
51855;DHT22;37895;53.240;6.572;2023-07-13T01:14:17;17.60;99.90
51855;DHT22;37895;53.240;6.572;2023-07-13T01:16:44;17.50;99.90
51855;DHT22;37895;53.240;6.572;2023-07-13T01:19:12;17.50;99.90
51855;DHT22;37895;53.240;6.572;2023-07-13T01:21:40;17.50;99.90
51855;DHT22;37895;53.240;6.572;2023-07-13T01:24:08;17.50;99.90
51855;DHT22;37895;53.240;6.572;2023-07-13T01:26:34;17.50;99.90
51855;DHT22;37895;53.240;6.572;2023-07-13T01:28:59;17.40;99.90
51855;DHT22;37895;53.240;6.572;2023-07-13T01:31:25;17.40;99.90
51855;DHT22;37895;53.240;6.572;2023-07-13T01:33:51;17.40;99.90
51855;DHT22;37895;53.240;6.572;2023-07-13T01:36:16;17.30;99.90
51855;DHT22;37895;53.240;6.572;2023-07-13T01:38:42;17.30;99.90
51855;DHT22;37895;53.240;6.572;2023-07-13T01:41:07;17.30;99.90
51855;DHT22;37895;53.240;6.572;2023-07-13T01:43:33;17.30;99.90
51855;DHT22;37895;53.240;6.572;2023-07-13T01:45:58;17.30;99.90
51855;DHT22;37895;53.240;6.572;2023-07-13T01:48:24;17.30;99.90
51855;DHT22;37895;53.240;6.572;2023-07-13T01:50:50;17.30;99.90
51855;DHT22;37895;53.240;6.572;2023-07-13T01:53:15;17.30;99.90
51855;DHT22;37895;53.240;6.572;2023-07-13T01:55:41;17.30;99.90
51855;DHT22;37895;53.240;6.572;2023-07-13T01:58:07;17.30;99.90
51855;DHT22;37895;53.240;6.572;2023-07-13T02:00:32;17.30;99.90
51855;DHT22;37895;53.240;6.572;2023-07-13T02:02:58;17.30;99.90
51855;DHT22;37895;53.240;6.572;2023-07-13T02:05:23;17.30;99.90
51855;DHT22;37895;53.240;6.572;2023-07-13T02:07:49;17.30;99.90
51855;DHT22;37895;53.240;6.572;2023-07-13T02:10:15;17.20;99.90
51855;DHT22;37895;53.240;6.572;2023-07-13T02:12:41;17.20;99.90
51855;DHT22;37895;53.240;6.572;2023-07-13T02:15:07;17.20;99.90
51855;DHT22;37895;53.240;6.572;2023-07-13T02:17:33;17.20;99.90
51855;DHT22;37895;53.240;6.572;2023-07-13T02:19:59;17.20;99.90
51855;DHT22;37895;53.240;6.572;2023-07-13T02:22:24;17.20;99.90
51855;DHT22;37895;53.240;6.572;2023-07-13T02:24:50;17.10;99.90
51855;DHT22;37895;53.240;6.572;2023-07-13T02:27:16;17.10;99.90
51855;DHT22;37895;53.240;6.572;2023-07-13T02:29:41;17.10;99.90
51855;DHT22;37895;53.240;6.572;2023-07-13T02:32:07;17.10;99.90
51855;DHT22;37895;53.240;6.572;2023-07-13T02:34:33;17.10;99.90
51855;DHT22;37895;53.240;6.572;2023-07-13T02:36:58;17.00;99.90
51855;DHT22;37895;53.240;6.572;2023-07-13T02:39:24;17.00;99.90
51855;DHT22;37895;53.240;6.572;2023-07-13T02:41:49;17.00;99.90
51855;DHT22;37895;53.240;6.572;2023-07-13T02:44:15;16.90;99.90
51855;DHT22;37895;53.240;6.572;2023-07-13T02:46:41;16.90;99.90
51855;DHT22;37895;53.240;6.572;2023-07-13T02:49:06;16.90;99.90
51855;DHT22;37895;53.240;6.572;2023-07-13T02:51:32;16.90;99.90
51855;DHT22;37895;53.240;6.572;2023-07-13T02:54:02;16.90;99.90
51855;DHT22;37895;53.240;6.572;2023-07-13T02:56:29;16.90;99.90
51855;DHT22;37895;53.240;6.572;2023-07-13T02:58:55;16.80;99.90
51855;DHT22;37895;53.240;6.572;2023-07-13T03:01:21;16.80;99.90
51855;DHT22;37895;53.240;6.572;2023-07-13T03:03:47;16.80;99.90
51855;DHT22;37895;53.240;6.572;2023-07-13T03:06:13;16.80;99.90
51855;DHT22;37895;53.240;6.572;2023-07-13T03:08:39;16.80;99.90
51855;DHT22;37895;53.240;6.572;2023-07-13T03:11:06;16.70;99.90
51855;DHT22;37895;53.240;6.572;2023-07-13T03:13:31;16.70;99.90
51855;DHT22;37895;53.240;6.572;2023-07-13T03:15:57;16.60;99.90
51855;DHT22;37895;53.240;6.572;2023-07-13T03:18:22;16.60;99.90
51855;DHT22;37895;53.240;6.572;2023-07-13T03:20:50;16.50;99.90
51855;DHT22;37895;53.240;6.572;2023-07-13T03:23:16;16.60;99.90
51855;DHT22;37895;53.240;6.572;2023-07-13T03:25:42;16.60;99.90
51855;DHT22;37895;53.240;6.572;2023-07-13T03:28:07;16.50;99.90
51855;DHT22;37895;53.240;6.572;2023-07-13T03:30:33;16.50;99.90
51855;DHT22;37895;53.240;6.572;2023-07-13T03:32:58;16.50;99.90
51855;DHT22;37895;53.240;6.572;2023-07-13T03:35:24;16.50;99.90
51855;DHT22;37895;53.240;6.572;2023-07-13T03:37:49;16.50;99.90
51855;DHT22;37895;53.240;6.572;2023-07-13T03:40:16;16.50;99.90
51855;DHT22;37895;53.240;6.572;2023-07-13T03:42:42;16.60;99.90
51855;DHT22;37895;53.240;6.572;2023-07-13T03:45:07;16.60;99.90
51855;DHT22;37895;53.240;6.572;2023-07-13T03:47:33;16.60;99.90
51855;DHT22;37895;53.240;6.572;2023-07-13T03:49:58;16.60;99.90
51855;DHT22;37895;53.240;6.572;2023-07-13T03:52:24;16.60;99.90
51855;DHT22;37895;53.240;6.572;2023-07-13T03:54:49;16.60;99.90
51855;DHT22;37895;53.240;6.572;2023-07-13T03:57:15;16.60;99.90
51855;DHT22;37895;53.240;6.572;2023-07-13T03:59:40;16.60;99.90
51855;DHT22;37895;53.240;6.572;2023-07-13T04:02:06;16.60;99.90
51855;DHT22;37895;53.240;6.572;2023-07-13T04:04:31;16.60;99.90
51855;DHT22;37895;53.240;6.572;2023-07-13T04:06:57;16.60;99.90
51855;DHT22;37895;53.240;6.572;2023-07-13T04:09:24;16.50;99.90
51855;DHT22;37895;53.240;6.572;2023-07-13T04:11:49;16.60;99.90
51855;DHT22;37895;53.240;6.572;2023-07-13T04:14:15;16.50;99.90
51855;DHT22;37895;53.240;6.572;2023-07-13T04:16:41;16.50;99.90
51855;DHT22;37895;53.240;6.572;2023-07-13T04:19:07;16.40;99.90
51855;DHT22;37895;53.240;6.572;2023-07-13T04:21:33;16.40;99.90
51855;DHT22;37895;53.240;6.572;2023-07-13T04:23:59;16.40;99.90
51855;DHT22;37895;53.240;6.572;2023-07-13T04:26:24;16.40;99.90
51855;DHT22;37895;53.240;6.572;2023-07-13T04:28:51;16.40;99.90
51855;DHT22;37895;53.240;6.572;2023-07-13T04:31:17;16.40;99.90
51855;DHT22;37895;53.240;6.572;2023-07-13T04:33:44;16.40;99.90
51855;DHT22;37895;53.240;6.572;2023-07-13T04:36:10;16.40;99.90
51855;DHT22;37895;53.240;6.572;2023-07-13T04:38:36;16.40;99.90
51855;DHT22;37895;53.240;6.572;2023-07-13T04:41:07;16.40;99.90
51855;DHT22;37895;53.240;6.572;2023-07-13T04:43:33;16.50;99.90
51855;DHT22;37895;53.240;6.572;2023-07-13T04:46:03;16.40;99.90
51855;DHT22;37895;53.240;6.572;2023-07-13T04:48:28;16.40;99.90
51855;DHT22;37895;53.240;6.572;2023-07-13T04:50:55;16.40;99.90
51855;DHT22;37895;53.240;6.572;2023-07-13T04:53:20;16.50;99.90
51855;DHT22;37895;53.240;6.572;2023-07-13T04:55:46;16.40;99.90
51855;DHT22;37895;53.240;6.572;2023-07-13T04:58:12;16.50;99.90
51855;DHT22;37895;53.240;6.572;2023-07-13T05:00:38;16.50;99.90
51855;DHT22;37895;53.240;6.572;2023-07-13T05:03:03;16.50;99.90
51855;DHT22;37895;53.240;6.572;2023-07-13T05:05:29;16.50;99.90
51855;DHT22;37895;53.240;6.572;2023-07-13T05:07:55;16.50;99.90
51855;DHT22;37895;53.240;6.572;2023-07-13T05:10:20;16.60;99.90
51855;DHT22;37895;53.240;6.572;2023-07-13T05:12:46;16.70;99.90
51855;DHT22;37895;53.240;6.572;2023-07-13T05:15:11;16.60;99.90
51855;DHT22;37895;53.240;6.572;2023-07-13T05:17:37;16.70;99.90
51855;DHT22;37895;53.240;6.572;2023-07-13T05:20:04;16.80;99.90
51855;DHT22;37895;53.240;6.572;2023-07-13T05:22:31;16.70;99.90
51855;DHT22;37895;53.240;6.572;2023-07-13T05:24:56;16.80;99.90
51855;DHT22;37895;53.240;6.572;2023-07-13T05:27:22;16.90;99.90
51855;DHT22;37895;53.240;6.572;2023-07-13T05:29:48;16.90;99.90
51855;DHT22;37895;53.240;6.572;2023-07-13T05:32:14;16.90;99.90
51855;DHT22;37895;53.240;6.572;2023-07-13T05:34:39;16.90;99.90
51855;DHT22;37895;53.240;6.572;2023-07-13T05:37:05;16.90;99.90
51855;DHT22;37895;53.240;6.572;2023-07-13T05:39:30;17.00;99.90
51855;DHT22;37895;53.240;6.572;2023-07-13T05:41:56;17.00;99.90
51855;DHT22;37895;53.240;6.572;2023-07-13T05:44:21;17.10;99.90
51855;DHT22;37895;53.240;6.572;2023-07-13T05:46:47;17.10;99.90
51855;DHT22;37895;53.240;6.572;2023-07-13T05:49:12;17.10;99.90
51855;DHT22;37895;53.240;6.572;2023-07-13T05:51:38;17.20;99.90
51855;DHT22;37895;53.240;6.572;2023-07-13T05:54:03;17.20;99.90
51855;DHT22;37895;53.240;6.572;2023-07-13T05:56:29;17.20;99.90
51855;DHT22;37895;53.240;6.572;2023-07-13T05:58:55;17.30;99.90
51855;DHT22;37895;53.240;6.572;2023-07-13T06:01:21;17.40;99.90
51855;DHT22;37895;53.240;6.572;2023-07-13T06:03:47;17.40;99.90
51855;DHT22;37895;53.240;6.572;2023-07-13T06:06:13;17.40;99.90
51855;DHT22;37895;53.240;6.572;2023-07-13T06:08:39;17.50;99.90
51855;DHT22;37895;53.240;6.572;2023-07-13T06:11:05;17.60;99.90
51855;DHT22;37895;53.240;6.572;2023-07-13T06:13:31;17.60;99.90
51855;DHT22;37895;53.240;6.572;2023-07-13T06:15:58;17.60;99.90
51855;DHT22;37895;53.240;6.572;2023-07-13T06:18:24;17.60;99.90
51855;DHT22;37895;53.240;6.572;2023-07-13T06:20:49;17.70;99.90
51855;DHT22;37895;53.240;6.572;2023-07-13T06:23:15;17.80;99.90
51855;DHT22;37895;53.240;6.572;2023-07-13T06:25:40;17.80;99.90
51855;DHT22;37895;53.240;6.572;2023-07-13T06:28:06;17.90;99.90
51855;DHT22;37895;53.240;6.572;2023-07-13T06:30:31;17.90;99.90
51855;DHT22;37895;53.240;6.572;2023-07-13T06:32:57;18.00;99.90
51855;DHT22;37895;53.240;6.572;2023-07-13T06:35:23;18.00;99.90
51855;DHT22;37895;53.240;6.572;2023-07-13T06:37:48;18.10;99.90
51855;DHT22;37895;53.240;6.572;2023-07-13T06:40:14;18.10;99.90
51855;DHT22;37895;53.240;6.572;2023-07-13T06:42:39;18.20;99.90
51855;DHT22;37895;53.240;6.572;2023-07-13T06:45:05;18.30;99.90
51855;DHT22;37895;53.240;6.572;2023-07-13T06:47:30;18.40;99.90
51855;DHT22;37895;53.240;6.572;2023-07-13T06:49:56;18.50;99.90
51855;DHT22;37895;53.240;6.572;2023-07-13T06:52:21;18.50;99.90
51855;DHT22;37895;53.240;6.572;2023-07-13T06:54:47;18.50;99.90
51855;DHT22;37895;53.240;6.572;2023-07-13T06:57:12;18.60;99.90
51855;DHT22;37895;53.240;6.572;2023-07-13T06:59:38;18.70;99.90
51855;DHT22;37895;53.240;6.572;2023-07-13T07:02:03;18.80;99.90
51855;DHT22;37895;53.240;6.572;2023-07-13T07:04:29;18.90;99.90
51855;DHT22;37895;53.240;6.572;2023-07-13T07:06:55;18.90;99.90
51855;DHT22;37895;53.240;6.572;2023-07-13T07:09:20;19.10;99.90
51855;DHT22;37895;53.240;6.572;2023-07-13T07:11:46;19.20;99.90
51855;DHT22;37895;53.240;6.572;2023-07-13T07:14:11;19.40;99.90
51855;DHT22;37895;53.240;6.572;2023-07-13T07:16:37;19.50;99.90
51855;DHT22;37895;53.240;6.572;2023-07-13T07:19:02;19.60;99.90
51855;DHT22;37895;53.240;6.572;2023-07-13T07:21:28;19.60;99.90
51855;DHT22;37895;53.240;6.572;2023-07-13T07:23:53;19.60;99.90
51855;DHT22;37895;53.240;6.572;2023-07-13T07:26:19;19.60;99.90
51855;DHT22;37895;53.240;6.572;2023-07-13T07:28:44;19.50;99.90
51855;DHT22;37895;53.240;6.572;2023-07-13T07:31:10;19.40;99.90
51855;DHT22;37895;53.240;6.572;2023-07-13T07:33:35;19.40;99.90
51855;DHT22;37895;53.240;6.572;2023-07-13T07:36:01;19.40;99.90
51855;DHT22;37895;53.240;6.572;2023-07-13T07:38:27;19.40;99.90
51855;DHT22;37895;53.240;6.572;2023-07-13T07:40:52;19.50;99.90
51855;DHT22;37895;53.240;6.572;2023-07-13T07:43:18;19.50;99.90
51855;DHT22;37895;53.240;6.572;2023-07-13T07:45:44;19.60;99.90
51855;DHT22;37895;53.240;6.572;2023-07-13T07:48:09;19.60;99.90
51855;DHT22;37895;53.240;6.572;2023-07-13T07:50:35;19.60;99.90
51855;DHT22;37895;53.240;6.572;2023-07-13T07:54:21;19.60;99.90
51855;DHT22;37895;53.240;6.572;2023-07-13T07:56:46;19.70;99.90
51855;DHT22;37895;53.240;6.572;2023-07-13T07:59:12;19.80;99.90
51855;DHT22;37895;53.240;6.572;2023-07-13T08:01:38;19.80;99.90
51855;DHT22;37895;53.240;6.572;2023-07-13T08:04:03;19.80;99.90
51855;DHT22;37895;53.240;6.572;2023-07-13T08:06:31;19.80;99.90
51855;DHT22;37895;53.240;6.572;2023-07-13T08:08:59;19.70;99.90
51855;DHT22;37895;53.240;6.572;2023-07-13T08:11:25;19.60;99.90
51855;DHT22;37895;53.240;6.572;2023-07-13T08:13:51;19.60;99.90
51855;DHT22;37895;53.240;6.572;2023-07-13T08:16:16;19.60;99.90
51855;DHT22;37895;53.240;6.572;2023-07-13T08:18:42;19.60;99.90
51855;DHT22;37895;53.240;6.572;2023-07-13T08:21:08;19.60;99.90
51855;DHT22;37895;53.240;6.572;2023-07-13T08:23:35;19.60;99.90
51855;DHT22;37895;53.240;6.572;2023-07-13T08:26:01;19.70;99.90
51855;DHT22;37895;53.240;6.572;2023-07-13T08:28:29;19.70;99.90
51855;DHT22;37895;53.240;6.572;2023-07-13T08:30:54;19.70;99.90
51855;DHT22;37895;53.240;6.572;2023-07-13T08:33:21;19.80;99.90
51855;DHT22;37895;53.240;6.572;2023-07-13T08:35:48;19.80;99.90
51855;DHT22;37895;53.240;6.572;2023-07-13T08:38:15;19.80;99.90
51855;DHT22;37895;53.240;6.572;2023-07-13T08:40:42;19.70;99.90
51855;DHT22;37895;53.240;6.572;2023-07-13T08:43:16;19.60;99.90
51855;DHT22;37895;53.240;6.572;2023-07-13T08:45:54;19.60;99.90
51855;DHT22;37895;53.240;6.572;2023-07-13T08:48:26;19.50;99.90
51855;DHT22;37895;53.240;6.572;2023-07-13T08:51:23;19.40;99.90
51855;DHT22;37895;53.240;6.572;2023-07-13T08:53:52;19.50;99.90
51855;DHT22;37895;53.240;6.572;2023-07-13T08:56:25;19.40;99.90
51855;DHT22;37895;53.240;6.572;2023-07-13T08:59:10;19.50;99.90
51855;DHT22;37895;53.240;6.572;2023-07-13T09:04:48;20.00;99.90
51855;DHT22;37895;53.240;6.572;2023-07-13T09:10:23;20.20;99.90
51855;DHT22;37895;53.240;6.572;2023-07-13T09:12:54;20.20;99.90
51855;DHT22;37895;53.240;6.572;2023-07-13T09:15:27;20.10;99.90
51855;DHT22;37895;53.240;6.572;2023-07-13T09:17:59;20.00;99.90
51855;DHT22;37895;53.240;6.572;2023-07-13T09:20:37;19.90;99.90
51855;DHT22;37895;53.240;6.572;2023-07-13T09:23:12;19.90;99.90
51855;DHT22;37895;53.240;6.572;2023-07-13T09:25:41;20.00;99.90
51855;DHT22;37895;53.240;6.572;2023-07-13T09:28:13;20.10;99.90
51855;DHT22;37895;53.240;6.572;2023-07-13T09:31:07;20.20;99.90
51855;DHT22;37895;53.240;6.572;2023-07-13T09:33:33;20.40;99.90
51855;DHT22;37895;53.240;6.572;2023-07-13T09:36:00;20.50;99.90
51855;DHT22;37895;53.240;6.572;2023-07-13T09:38:29;20.60;99.90
51855;DHT22;37895;53.240;6.572;2023-07-13T09:46:35;20.70;99.90
51855;DHT22;37895;53.240;6.572;2023-07-13T09:49:00;20.60;99.90
51855;DHT22;37895;53.240;6.572;2023-07-13T09:51:26;20.70;99.90
51855;DHT22;37895;53.240;6.572;2023-07-13T09:53:52;20.70;99.90
51855;DHT22;37895;53.240;6.572;2023-07-13T09:56:27;20.70;99.90
51855;DHT22;37895;53.240;6.572;2023-07-13T09:58:53;20.80;99.90
51855;DHT22;37895;53.240;6.572;2023-07-13T10:01:37;20.70;99.90
51855;DHT22;37895;53.240;6.572;2023-07-13T10:04:11;20.70;99.80
51855;DHT22;37895;53.240;6.572;2023-07-13T10:06:39;20.50;99.60
51855;DHT22;37895;53.240;6.572;2023-07-13T10:09:09;20.40;99.90
51855;DHT22;37895;53.240;6.572;2023-07-13T10:11:36;20.20;99.70
51855;DHT22;37895;53.240;6.572;2023-07-13T10:14:15;20.30;99.90
51855;DHT22;37895;53.240;6.572;2023-07-13T10:16:43;20.40;99.90
51855;DHT22;37895;53.240;6.572;2023-07-13T10:19:23;20.70;99.60
51855;DHT22;37895;53.240;6.572;2023-07-13T10:21:56;20.90;99.70
51855;DHT22;37895;53.240;6.572;2023-07-13T10:24:24;21.00;98.80
51855;DHT22;37895;53.240;6.572;2023-07-13T10:27:21;21.00;98.30
51855;DHT22;37895;53.240;6.572;2023-07-13T10:30:01;21.10;98.30
51855;DHT22;37895;53.240;6.572;2023-07-13T10:32:27;21.30;98.10
51855;DHT22;37895;53.240;6.572;2023-07-13T10:34:53;21.50;97.40
51855;DHT22;37895;53.240;6.572;2023-07-13T10:37:51;21.70;97.50
51855;DHT22;37895;53.240;6.572;2023-07-13T10:40:39;22.00;97.10
51855;DHT22;37895;53.240;6.572;2023-07-13T10:43:13;21.90;96.40
51855;DHT22;37895;53.240;6.572;2023-07-13T10:45:40;22.00;95.80
51855;DHT22;37895;53.240;6.572;2023-07-13T10:48:06;21.90;96.00
51855;DHT22;37895;53.240;6.572;2023-07-13T10:50:38;21.80;95.70
51855;DHT22;37895;53.240;6.572;2023-07-13T10:53:29;21.90;94.90
51855;DHT22;37895;53.240;6.572;2023-07-13T11:06:11;22.20;95.20
51855;DHT22;37895;53.240;6.572;2023-07-13T11:18:49;22.80;93.80
51855;DHT22;37895;53.240;6.572;2023-07-13T11:21:17;22.50;94.20
51855;DHT22;37895;53.240;6.572;2023-07-13T11:23:45;22.50;94.80
51855;DHT22;37895;53.240;6.572;2023-07-13T11:29:33;22.50;93.70
51855;DHT22;37895;53.240;6.572;2023-07-13T11:32:22;22.60;93.10
51855;DHT22;37895;53.240;6.572;2023-07-13T11:34:48;22.60;93.50
51855;DHT22;37895;53.240;6.572;2023-07-13T11:37:16;22.70;93.50
51855;DHT22;37895;53.240;6.572;2023-07-13T11:39:44;22.60;93.90
51855;DHT22;37895;53.240;6.572;2023-07-13T11:42:13;22.40;93.60
51855;DHT22;37895;53.240;6.572;2023-07-13T11:44:48;22.30;93.30
51855;DHT22;37895;53.240;6.572;2023-07-13T11:47:20;22.30;93.80
51855;DHT22;37895;53.240;6.572;2023-07-13T11:49:53;22.30;93.80
51855;DHT22;37895;53.240;6.572;2023-07-13T11:52:32;22.40;94.30
51855;DHT22;37895;53.240;6.572;2023-07-13T11:55:01;22.30;94.40
51855;DHT22;37895;53.240;6.572;2023-07-13T11:57:30;22.30;94.20
51855;DHT22;37895;53.240;6.572;2023-07-13T12:00:00;22.30;94.50
51855;DHT22;37895;53.240;6.572;2023-07-13T12:02:33;22.40;94.80
51855;DHT22;37895;53.240;6.572;2023-07-13T12:05:00;22.40;94.30
51855;DHT22;37895;53.240;6.572;2023-07-13T12:07:29;22.50;94.30
51855;DHT22;37895;53.240;6.572;2023-07-13T12:13:04;22.70;93.20
51855;DHT22;37895;53.240;6.572;2023-07-13T12:15:39;22.80;93.20
51855;DHT22;37895;53.240;6.572;2023-07-13T12:18:18;22.60;93.00
51855;DHT22;37895;53.240;6.572;2023-07-13T12:20:45;22.40;93.20
51855;DHT22;37895;53.240;6.572;2023-07-13T12:23:32;22.20;93.30
51855;DHT22;37895;53.240;6.572;2023-07-13T12:26:02;22.20;93.20
51855;DHT22;37895;53.240;6.572;2023-07-13T12:28:37;22.10;93.40
51855;DHT22;37895;53.240;6.572;2023-07-13T12:31:06;22.10;93.80
51855;DHT22;37895;53.240;6.572;2023-07-13T12:33:33;22.20;93.70
51855;DHT22;37895;53.240;6.572;2023-07-13T12:36:05;22.10;94.10
51855;DHT22;37895;53.240;6.572;2023-07-13T12:38:32;22.20;94.10
51855;DHT22;37895;53.240;6.572;2023-07-13T12:40:58;22.30;93.10
51855;DHT22;37895;53.240;6.572;2023-07-13T12:43:25;22.30;93.10
51855;DHT22;37895;53.240;6.572;2023-07-13T12:46:04;22.20;93.80
51855;DHT22;37895;53.240;6.572;2023-07-13T12:48:38;22.00;92.80
51855;DHT22;37895;53.240;6.572;2023-07-13T12:51:04;22.00;94.10
51855;DHT22;37895;53.240;6.572;2023-07-13T12:53:40;22.00;93.60
51855;DHT22;37895;53.240;6.572;2023-07-13T12:56:08;22.00;93.70
51855;DHT22;37895;53.240;6.572;2023-07-13T12:58:40;22.20;94.20
51855;DHT22;37895;53.240;6.572;2023-07-13T13:01:10;22.50;94.70
51855;DHT22;37895;53.240;6.572;2023-07-13T13:03:46;22.70;94.60
51855;DHT22;37895;53.240;6.572;2023-07-13T13:08:50;22.80;95.50
51855;DHT22;37895;53.240;6.572;2023-07-13T13:11:17;23.20;93.70
51855;DHT22;37895;53.240;6.572;2023-07-13T13:13:43;23.00;92.80
51855;DHT22;37895;53.240;6.572;2023-07-13T13:16:32;23.00;93.40
51855;DHT22;37895;53.240;6.572;2023-07-13T13:19:05;23.10;94.00
51855;DHT22;37895;53.240;6.572;2023-07-13T13:21:35;23.40;94.60
51855;DHT22;37895;53.240;6.572;2023-07-13T13:24:01;23.60;94.40
51855;DHT22;37895;53.240;6.572;2023-07-13T13:26:26;23.50;94.80
51855;DHT22;37895;53.240;6.572;2023-07-13T13:28:52;22.70;94.20
51855;DHT22;37895;53.240;6.572;2023-07-13T13:31:17;22.70;96.10
51855;DHT22;37895;53.240;6.572;2023-07-13T13:33:44;22.40;95.60
51855;DHT22;37895;53.240;6.572;2023-07-13T13:36:22;22.20;96.10
51855;DHT22;37895;53.240;6.572;2023-07-13T13:38:49;22.00;99.30
51855;DHT22;37895;53.240;6.572;2023-07-13T13:41:16;21.40;99.90
51855;DHT22;37895;53.240;6.572;2023-07-13T13:43:42;21.10;99.90
51855;DHT22;37895;53.240;6.572;2023-07-13T13:46:21;21.10;99.90
51855;DHT22;37895;53.240;6.572;2023-07-13T13:48:48;21.40;99.90
51855;DHT22;37895;53.240;6.572;2023-07-13T13:51:21;21.50;99.90
51855;DHT22;37895;53.240;6.572;2023-07-13T13:53:48;21.60;99.90
51855;DHT22;37895;53.240;6.572;2023-07-13T13:56:15;21.80;99.90
51855;DHT22;37895;53.240;6.572;2023-07-13T13:58:42;22.00;99.90
51855;DHT22;37895;53.240;6.572;2023-07-13T14:01:21;22.00;99.90
51855;DHT22;37895;53.240;6.572;2023-07-13T14:03:48;22.10;99.90
51855;DHT22;37895;53.240;6.572;2023-07-13T14:06:16;22.20;99.60
51855;DHT22;37895;53.240;6.572;2023-07-13T14:08:42;22.40;98.70
51855;DHT22;37895;53.240;6.572;2023-07-13T14:11:13;22.20;98.40
51855;DHT22;37895;53.240;6.572;2023-07-13T14:13:49;22.40;97.80
51855;DHT22;37895;53.240;6.572;2023-07-13T14:16:18;22.30;97.70
51855;DHT22;37895;53.240;6.572;2023-07-13T14:18:45;22.10;96.80
51855;DHT22;37895;53.240;6.572;2023-07-13T14:21:16;22.10;97.40
51855;DHT22;37895;53.240;6.572;2023-07-13T14:23:44;22.30;96.80
51855;DHT22;37895;53.240;6.572;2023-07-13T14:26:13;22.10;96.00
51855;DHT22;37895;53.240;6.572;2023-07-13T14:28:45;22.00;96.90
51855;DHT22;37895;53.240;6.572;2023-07-13T14:31:12;22.00;97.10
51855;DHT22;37895;53.240;6.572;2023-07-13T14:33:38;22.10;96.90
51855;DHT22;37895;53.240;6.572;2023-07-13T14:36:26;22.40;96.10
51855;DHT22;37895;53.240;6.572;2023-07-13T14:38:50;22.40;96.30
51855;DHT22;37895;53.240;6.572;2023-07-13T14:41:15;22.70;95.50
51855;DHT22;37895;53.240;6.572;2023-07-13T14:43:41;22.90;94.80
51855;DHT22;37895;53.240;6.572;2023-07-13T14:46:08;23.20;95.10
51855;DHT22;37895;53.240;6.572;2023-07-13T14:48:41;23.20;94.00
51855;DHT22;37895;53.240;6.572;2023-07-13T14:51:08;23.20;94.60
51855;DHT22;37895;53.240;6.572;2023-07-13T14:53:35;23.30;94.90
51855;DHT22;37895;53.240;6.572;2023-07-13T14:56:11;23.40;94.60
51855;DHT22;37895;53.240;6.572;2023-07-13T14:58:37;23.30;94.20
51855;DHT22;37895;53.240;6.572;2023-07-13T15:01:12;23.40;94.90
51855;DHT22;37895;53.240;6.572;2023-07-13T15:03:46;23.40;94.20
51855;DHT22;37895;53.240;6.572;2023-07-13T15:06:13;23.50;94.50
51855;DHT22;37895;53.240;6.572;2023-07-13T15:08:39;23.40;94.60
51855;DHT22;37895;53.240;6.572;2023-07-13T15:11:08;23.30;94.50
51855;DHT22;37895;53.240;6.572;2023-07-13T15:13:37;23.10;94.50
51855;DHT22;37895;53.240;6.572;2023-07-13T15:16:04;23.00;95.30
51855;DHT22;37895;53.240;6.572;2023-07-13T15:18:30;23.00;95.00
51855;DHT22;37895;53.240;6.572;2023-07-13T15:20:56;23.10;94.60
51855;DHT22;37895;53.240;6.572;2023-07-13T15:23:23;23.20;94.60
51855;DHT22;37895;53.240;6.572;2023-07-13T15:25:49;23.20;94.60
51855;DHT22;37895;53.240;6.572;2023-07-13T15:28:15;23.40;94.80
51855;DHT22;37895;53.240;6.572;2023-07-13T15:30:44;23.10;93.90
51855;DHT22;37895;53.240;6.572;2023-07-13T15:33:15;23.10;94.00
51855;DHT22;37895;53.240;6.572;2023-07-13T15:35:43;22.90;94.10
51855;DHT22;37895;53.240;6.572;2023-07-13T15:38:23;22.90;94.50
51855;DHT22;37895;53.240;6.572;2023-07-13T15:40:50;22.90;94.70
51855;DHT22;37895;53.240;6.572;2023-07-13T15:43:18;22.90;94.90
51855;DHT22;37895;53.240;6.572;2023-07-13T15:45:44;23.00;94.60
51855;DHT22;37895;53.240;6.572;2023-07-13T15:48:20;23.20;94.50
51855;DHT22;37895;53.240;6.572;2023-07-13T15:50:51;23.40;93.20
51855;DHT22;37895;53.240;6.572;2023-07-13T15:53:26;23.40;92.70
51855;DHT22;37895;53.240;6.572;2023-07-13T15:55:54;23.40;93.00
51855;DHT22;37895;53.240;6.572;2023-07-13T15:58:19;23.50;92.90
51855;DHT22;37895;53.240;6.572;2023-07-13T16:00:46;23.00;93.40
51855;DHT22;37895;53.240;6.572;2023-07-13T16:03:11;23.10;93.90
51855;DHT22;37895;53.240;6.572;2023-07-13T16:05:37;23.00;94.10
51855;DHT22;37895;53.240;6.572;2023-07-13T16:08:05;23.00;93.90
51855;DHT22;37895;53.240;6.572;2023-07-13T16:10:34;23.00;94.00
51855;DHT22;37895;53.240;6.572;2023-07-13T16:13:01;22.80;93.70
51855;DHT22;37895;53.240;6.572;2023-07-13T16:15:27;22.90;93.80
51855;DHT22;37895;53.240;6.572;2023-07-13T16:17:53;22.90;93.80